createdAt,value
2023-01-06T00:00:36.841Z,95937.44
2023-01-06T00:03:04.015Z,95933.13
2023-01-06T00:05:31.337Z,95937.53
2023-01-06T00:07:59.029Z,95939.56
2023-01-06T00:10:25.594Z,95929.41
2023-01-06T00:12:52.460Z,95933.19
2023-01-06T00:15:19.479Z,95925.78
2023-01-06T00:17:46.270Z,95924.44
2023-01-06T00:20:13.320Z,95928.22
2023-01-06T00:22:41.082Z,95915.72
2023-01-06T00:25:10.182Z,95916.13
2023-01-06T00:27:37.543Z,95917.47
2023-01-06T00:30:04.578Z,95908.59
2023-01-06T00:32:31.151Z,95899.34
2023-01-06T00:34:58.741Z,95904.31
2023-01-06T00:37:26.089Z,95902.22
2023-01-06T00:39:52.627Z,95900.41
2023-01-06T00:42:19.268Z,95902.16
2023-01-06T00:44:45.827Z,95898.56
2023-01-06T00:47:12.628Z,95899.00
2023-01-06T00:49:39.273Z,95899.72
2023-01-06T00:52:06.216Z,95893.78
2023-01-06T00:54:32.797Z,95893.13
2023-01-06T00:56:59.311Z,95891.94
2023-01-06T00:59:26.717Z,95892.53
2023-01-06T01:01:56.531Z,95886.31
2023-01-06T01:04:24.511Z,95884.16
2023-01-06T01:06:52.730Z,95884.09
2023-01-06T01:09:30.784Z,95878.75
2023-01-06T01:12:10.661Z,95879.22
2023-01-06T01:14:42.886Z,95876.34
2023-01-06T01:17:11.146Z,95874.19
2023-01-06T01:19:38.821Z,95871.03
2023-01-06T01:22:06.162Z,95869.31
2023-01-06T01:24:32.898Z,95870.88
2023-01-06T01:27:00.126Z,95880.03
2023-01-06T01:29:26.869Z,95880.63
2023-01-06T01:31:54.058Z,95873.09
2023-01-06T01:34:21.660Z,95872.91
2023-01-06T01:36:50.783Z,95878.03
2023-01-06T01:39:19.514Z,95872.03
2023-01-06T01:41:46.702Z,95873.66
2023-01-06T01:44:53.148Z,95870.19
2023-01-06T01:47:47.403Z,95868.88
2023-01-06T01:50:30.932Z,95874.84
2023-01-06T01:53:05.740Z,95870.84
2023-01-06T01:55:34.188Z,95868.59
2023-01-06T01:58:12.670Z,95865.41
2023-01-06T02:00:41.291Z,95864.63
2023-01-06T02:03:08.378Z,95866.44
2023-01-06T02:05:40.080Z,95868.66
2023-01-06T02:08:20.290Z,95860.84
2023-01-06T02:10:46.875Z,95867.06
2023-01-06T02:13:13.451Z,95866.00
2023-01-06T02:15:43.121Z,95865.44
2023-01-06T02:18:33.090Z,95854.53
2023-01-06T02:21:13.889Z,95848.06
2023-01-06T02:24:05.834Z,95855.53
2023-01-06T02:26:44.325Z,95846.44
2023-01-06T02:29:41.751Z,95843.84
2023-01-06T02:32:08.282Z,95828.56
2023-01-06T02:35:01.824Z,95827.75
2023-01-06T02:37:44.045Z,95828.72
2023-01-06T02:40:30.367Z,95834.25
2023-01-06T02:43:03.263Z,95834.91
2023-01-06T02:45:38.744Z,95830.06
2023-01-06T02:48:26.838Z,95831.09
2023-01-06T02:51:18.697Z,95823.50
2023-01-06T02:54:19.260Z,95820.78
2023-01-06T02:57:02.101Z,95825.47
2023-01-06T02:59:37.586Z,95823.38
2023-01-06T03:02:06.395Z,95819.53
2023-01-06T03:04:39.193Z,95816.25
2023-01-06T03:07:08.082Z,95814.59
2023-01-06T03:09:38.089Z,95815.28
2023-01-06T03:12:23.220Z,95807.56
2023-01-06T03:14:54.590Z,95817.91
2023-01-06T03:17:23.163Z,95811.84
2023-01-06T03:19:49.843Z,95808.00
2023-01-06T03:22:17.641Z,95809.09
2023-01-06T03:24:46.544Z,95804.56
2023-01-06T03:27:15.243Z,95804.00
2023-01-06T03:29:41.877Z,95799.44
2023-01-06T03:32:38.124Z,95802.34
2023-01-06T03:35:13.833Z,95803.06
2023-01-06T03:37:52.706Z,95801.25
2023-01-06T03:40:25.360Z,95797.81
2023-01-06T03:43:32.055Z,95799.31
2023-01-06T03:46:42.086Z,95799.03
2023-01-06T03:49:29.664Z,95802.06
2023-01-06T03:52:06.599Z,95809.25
2023-01-06T03:55:08.404Z,95811.03
2023-01-06T03:57:44.140Z,95809.22
2023-01-06T04:00:18.418Z,95809.91
2023-01-06T04:02:54.353Z,95815.97
2023-01-06T04:05:26.161Z,95815.53
2023-01-06T04:07:53.393Z,95810.47
2023-01-06T04:10:22.639Z,95804.81
2023-01-06T04:12:52.565Z,95806.03
2023-01-06T04:15:25.923Z,95810.31
2023-01-06T04:17:54.863Z,95808.38
2023-01-06T04:20:30.919Z,95805.34
2023-01-06T04:23:04.162Z,95811.22
2023-01-06T04:25:35.695Z,95815.31
2023-01-06T04:28:09.011Z,95810.38
2023-01-06T04:30:35.627Z,95816.81
2023-01-06T04:33:02.733Z,95817.81
2023-01-06T04:35:29.338Z,95815.75
2023-01-06T04:37:55.938Z,95812.97
2023-01-06T04:40:22.491Z,95816.28
2023-01-06T04:43:07.148Z,95812.97
2023-01-06T04:45:35.003Z,95809.78
2023-01-06T04:48:02.060Z,95818.81
2023-01-06T04:50:28.639Z,95814.75
2023-01-06T04:52:55.187Z,95819.47
2023-01-06T04:55:21.898Z,95815.03
2023-01-06T04:57:48.551Z,95810.97
2023-01-06T05:00:15.424Z,95812.16
2023-01-06T05:02:42.003Z,95815.16
2023-01-06T05:05:09.055Z,95807.56
2023-01-06T05:07:35.718Z,95807.50
2023-01-06T05:10:02.569Z,95812.44
2023-01-06T05:12:29.263Z,95812.56
2023-01-06T05:14:55.800Z,95811.03
2023-01-06T05:17:22.358Z,95820.66
2023-01-06T05:19:49.017Z,95820.09
2023-01-06T05:22:15.753Z,95811.53
2023-01-06T05:24:42.259Z,95820.50
2023-01-06T05:27:09.026Z,95820.50
2023-01-06T05:29:36.087Z,95818.56
2023-01-06T05:32:03.640Z,95814.19
2023-01-06T05:34:30.202Z,95816.25
2023-01-06T05:36:57.059Z,95813.06
2023-01-06T05:39:23.844Z,95813.63
2023-01-06T05:41:50.526Z,95807.94
2023-01-06T05:44:18.847Z,95811.66
2023-01-06T05:46:46.612Z,95817.16
2023-01-06T05:49:13.301Z,95812.03
2023-01-06T05:51:39.996Z,95811.34
2023-01-06T05:54:10.036Z,95815.88
2023-01-06T05:56:36.787Z,95817.66
2023-01-06T05:59:03.571Z,95812.44
2023-01-06T06:01:32.005Z,95813.78
2023-01-06T06:03:58.822Z,95809.47
2023-01-06T06:06:27.780Z,95807.44
2023-01-06T06:08:54.352Z,95809.50
2023-01-06T06:11:22.168Z,95811.00
2023-01-06T06:13:54.293Z,95812.41
2023-01-06T06:16:24.705Z,95822.78
2023-01-06T06:18:53.419Z,95816.91
2023-01-06T06:21:23.325Z,95820.03
2023-01-06T06:23:52.060Z,95819.25
2023-01-06T06:26:18.601Z,95818.59
2023-01-06T06:28:45.334Z,95819.19
2023-01-06T06:31:16.218Z,95817.22
2023-01-06T06:33:42.790Z,95826.00
2023-01-06T06:36:12.220Z,95821.03
2023-01-06T06:38:39.401Z,95816.53
2023-01-06T06:41:05.996Z,95821.03
2023-01-06T06:43:33.127Z,95815.25
2023-01-06T06:45:59.802Z,95813.59
2023-01-06T06:48:29.054Z,95810.94
2023-01-06T06:51:07.497Z,95809.47
2023-01-06T06:53:35.139Z,95810.22
2023-01-06T06:56:02.130Z,95812.81
2023-01-06T06:58:28.803Z,95807.50
2023-01-06T07:00:55.434Z,95808.19
2023-01-06T07:03:23.015Z,95802.91
2023-01-06T07:05:51.784Z,95806.91
2023-01-06T07:08:18.438Z,95816.91
2023-01-06T07:10:44.989Z,95808.78
2023-01-06T07:13:11.832Z,95811.19
2023-01-06T07:15:38.436Z,95809.09
2023-01-06T07:18:06.455Z,95811.94
2023-01-06T07:20:34.472Z,95814.13
2023-01-06T07:23:01.043Z,95810.31
2023-01-06T07:25:27.749Z,95821.31
2023-01-06T07:27:59.493Z,95812.72
2023-01-06T07:30:27.533Z,95808.69
2023-01-06T07:32:54.094Z,95810.41
2023-01-06T07:35:20.730Z,95815.19
2023-01-06T07:37:47.263Z,95815.25
2023-01-06T07:40:14.472Z,95808.50
2023-01-06T07:42:41.057Z,95805.06
2023-01-06T07:45:08.122Z,95802.25
2023-01-06T07:47:34.682Z,95798.53
2023-01-06T07:50:01.539Z,95793.06
2023-01-06T07:52:28.112Z,95791.22
2023-01-06T07:54:59.168Z,95789.41
2023-01-06T07:57:26.806Z,95792.16
2023-01-06T07:59:53.416Z,95786.59
2023-01-06T08:02:20.352Z,95792.25
2023-01-06T08:04:47.221Z,95789.88
2023-01-06T08:07:15.211Z,95782.63
2023-01-06T08:09:41.843Z,95788.47
2023-01-06T08:12:08.469Z,95778.28
2023-01-06T08:14:35.047Z,95777.34
2023-01-06T08:17:01.667Z,95782.19
2023-01-06T08:19:28.174Z,95787.03
2023-01-06T08:21:54.732Z,95791.00
2023-01-06T08:24:21.267Z,95806.19
2023-01-06T08:26:47.793Z,95801.63
2023-01-06T08:29:14.421Z,95789.81
2023-01-06T08:31:41.017Z,95794.38
2023-01-06T08:34:07.622Z,95785.56
2023-01-06T08:36:34.192Z,95778.78
2023-01-06T08:39:00.722Z,95779.34
2023-01-06T08:41:27.353Z,95770.66
2023-01-06T08:43:55.044Z,95774.72
2023-01-06T08:46:22.007Z,95777.75
2023-01-06T08:48:48.774Z,95774.97
2023-01-06T08:51:19.325Z,95783.34
2023-01-06T08:53:46.838Z,95781.13
2023-01-06T08:56:15.688Z,95795.16
2023-01-06T08:58:42.311Z,95785.66
2023-01-06T09:01:17.367Z,95794.03
2023-01-06T09:03:43.947Z,95799.75
2023-01-06T09:06:10.533Z,95787.03
2023-01-06T09:08:37.773Z,95793.38
2023-01-06T09:11:06.803Z,95796.22
2023-01-06T09:13:33.649Z,95795.47
2023-01-06T09:16:00.310Z,95800.53
2023-01-06T09:18:26.909Z,95806.22
2023-01-06T09:20:53.457Z,95801.69
2023-01-06T09:23:21.893Z,95802.41
2023-01-06T09:25:48.414Z,95807.44
2023-01-06T09:28:14.935Z,95810.47
2023-01-06T09:30:41.562Z,95818.41
2023-01-06T09:33:08.120Z,95819.44
2023-01-06T09:35:34.683Z,95815.91
2023-01-06T09:38:01.240Z,95822.56
2023-01-06T09:40:55.382Z,95831.97
2023-01-06T09:43:54.051Z,95836.88
2023-01-06T09:46:26.762Z,95832.66
2023-01-06T09:49:10.232Z,95831.53
2023-01-06T09:51:37.913Z,95827.28
2023-01-06T09:54:26.056Z,95843.28
2023-01-06T09:57:02.726Z,95844.19
2023-01-06T09:59:40.025Z,95839.50
2023-01-06T10:02:15.934Z,95844.56
2023-01-06T10:04:42.494Z,95838.53
2023-01-06T10:07:35.195Z,95832.63
2023-01-06T10:10:10.669Z,95828.06
2023-01-06T10:13:10.339Z,95830.72
2023-01-06T10:15:43.255Z,95824.94
2023-01-06T10:18:21.801Z,95822.31
2023-01-06T10:21:14.336Z,95830.06
2023-01-06T10:23:43.537Z,95822.81
2023-01-06T10:26:22.541Z,95822.56
2023-01-06T10:28:53.783Z,95815.47
2023-01-06T10:31:25.840Z,95812.28
2023-01-06T10:33:54.550Z,95820.78
2023-01-06T10:36:30.704Z,95810.59
2023-01-06T10:38:58.970Z,95799.44
2023-01-06T10:41:41.807Z,95804.69
2023-01-06T10:44:11.580Z,95822.38
2023-01-06T10:46:39.112Z,95817.88
2023-01-06T10:49:12.178Z,95806.28
2023-01-06T10:51:42.346Z,95805.31
2023-01-06T10:54:15.252Z,95805.88
2023-01-06T10:56:48.771Z,95801.91
2023-01-06T10:59:15.327Z,95803.09
2023-01-06T11:01:57.672Z,95812.56
2023-01-06T11:04:28.111Z,95818.97
2023-01-06T11:07:03.978Z,95804.59
2023-01-06T11:09:38.924Z,95809.09
2023-01-06T11:12:20.900Z,95803.84
2023-01-06T11:14:55.839Z,95805.25
2023-01-06T11:17:23.211Z,95800.66
2023-01-06T11:20:14.277Z,95806.25
2023-01-06T11:22:42.637Z,95804.63
2023-01-06T11:25:21.581Z,95806.00
2023-01-06T11:28:08.787Z,95806.44
2023-01-06T11:30:49.667Z,95801.41
2023-01-06T11:33:25.536Z,95801.09
2023-01-06T11:35:53.336Z,95808.50
2023-01-06T11:38:22.025Z,95803.25
2023-01-06T11:40:53.512Z,95810.13
2023-01-06T11:43:28.947Z,95799.28
2023-01-06T11:45:57.445Z,95796.69
2023-01-06T11:48:38.449Z,95801.97
2023-01-06T11:51:08.863Z,95801.31
2023-01-06T11:53:37.638Z,95791.47
2023-01-06T11:56:23.412Z,95786.22
2023-01-06T11:58:55.874Z,95794.19
2023-01-06T12:01:57.820Z,95797.84
2023-01-06T12:04:35.877Z,95789.66
2023-01-06T12:07:30.027Z,95786.59
2023-01-06T12:10:03.261Z,95779.81
2023-01-06T12:12:30.125Z,95771.13
2023-01-06T12:14:57.226Z,95766.72
2023-01-06T12:17:37.864Z,95763.25
2023-01-06T12:20:26.008Z,95765.38
2023-01-06T12:23:14.628Z,95764.78
2023-01-06T12:25:54.857Z,95764.13
2023-01-06T12:28:31.271Z,95767.78
2023-01-06T12:31:06.681Z,95759.47
2023-01-06T12:33:40.440Z,95753.56
2023-01-06T12:36:31.078Z,95747.78
2023-01-06T12:39:03.006Z,95743.03
2023-01-06T12:41:39.918Z,95757.69
2023-01-06T12:44:21.784Z,95741.19
2023-01-06T12:46:58.954Z,95746.97
2023-01-06T12:49:45.791Z,95739.53
2023-01-06T12:52:22.256Z,95748.75
2023-01-06T12:54:53.606Z,95748.66
2023-01-06T12:57:25.107Z,95743.81
2023-01-06T13:00:03.832Z,95742.31
2023-01-06T13:02:57.715Z,95745.19
2023-01-06T13:05:48.697Z,95758.25
2023-01-06T13:08:33.201Z,95755.09
2023-01-06T13:11:14.824Z,95761.44
2023-01-06T13:13:54.330Z,95770.22
2023-01-06T13:16:29.920Z,95754.88
2023-01-06T13:19:33.996Z,95757.50
2023-01-06T13:22:03.514Z,95740.81
2023-01-06T13:24:44.964Z,95753.06
2023-01-06T13:27:28.373Z,95756.97
2023-01-06T13:30:24.026Z,95743.06
2023-01-06T13:33:01.397Z,95755.09
2023-01-06T13:35:33.162Z,95752.47
2023-01-06T13:38:17.976Z,95751.63
2023-01-06T13:40:46.495Z,95764.72
2023-01-06T13:43:32.118Z,95759.94
2023-01-06T13:46:09.611Z,95762.19
2023-01-06T13:48:41.147Z,95768.88
2023-01-06T13:51:11.404Z,95770.03
2023-01-06T13:53:43.255Z,95769.22
2023-01-06T13:56:12.770Z,95767.31
2023-01-06T13:58:46.382Z,95768.06
2023-01-06T14:01:31.172Z,95776.31
2023-01-06T14:04:32.887Z,95779.66
2023-01-06T14:07:00.520Z,95776.44
2023-01-06T14:09:27.638Z,95785.06
2023-01-06T14:11:54.795Z,95789.91
2023-01-06T14:14:33.617Z,95789.91
2023-01-06T14:17:00.203Z,95791.69
2023-01-06T14:19:39.717Z,95791.84
2023-01-06T14:22:21.726Z,95788.72
2023-01-06T14:24:54.741Z,95792.88
2023-01-06T14:27:53.611Z,95796.25
2023-01-06T14:30:31.899Z,95787.88
2023-01-06T14:33:05.378Z,95782.09
2023-01-06T14:35:36.765Z,95783.13
2023-01-06T14:38:07.394Z,95785.94
2023-01-06T14:40:39.392Z,95779.28
2023-01-06T14:43:42.421Z,95785.63
2023-01-06T14:46:17.429Z,95778.47
2023-01-06T14:48:53.849Z,95787.09
2023-01-06T14:51:22.148Z,95781.78
2023-01-06T14:53:59.515Z,95790.84
2023-01-06T14:56:28.945Z,95784.44
2023-01-06T14:59:15.754Z,95775.44
2023-01-06T15:01:44.362Z,95775.47
2023-01-06T15:04:24.245Z,95777.56
2023-01-06T15:07:18.231Z,95772.19
2023-01-06T15:09:50.234Z,95767.78
2023-01-06T15:12:27.756Z,95768.13
2023-01-06T15:14:54.612Z,95773.53
2023-01-06T15:17:21.807Z,95777.97
2023-01-06T15:19:51.307Z,95778.94
2023-01-06T15:22:21.287Z,95778.66
2023-01-06T15:24:48.477Z,95777.63
2023-01-06T15:27:17.923Z,95774.84
2023-01-06T15:29:56.057Z,95774.25
2023-01-06T15:32:25.677Z,95776.16
2023-01-06T15:34:56.506Z,95782.06
2023-01-06T15:37:25.344Z,95780.41
2023-01-06T15:39:52.902Z,95782.25
2023-01-06T15:42:23.659Z,95777.47
2023-01-06T15:44:56.602Z,95782.59
2023-01-06T15:47:40.691Z,95783.41
2023-01-06T15:50:16.698Z,95789.81
2023-01-06T15:53:00.066Z,95790.16
2023-01-06T15:55:31.999Z,95786.00
2023-01-06T15:58:23.683Z,95784.69
2023-01-06T16:00:58.706Z,95780.41
2023-01-06T16:03:27.924Z,95794.69
2023-01-06T16:06:12.856Z,95791.84
2023-01-06T16:08:41.606Z,95789.84
2023-01-06T16:11:17.202Z,95791.44
2023-01-06T16:13:56.646Z,95803.63
2023-01-06T16:16:31.038Z,95790.41
2023-01-06T16:18:57.888Z,95795.59
2023-01-06T16:21:31.802Z,95800.41
2023-01-06T16:24:00.134Z,95793.63
2023-01-06T16:26:40.928Z,95803.72
2023-01-06T16:29:23.795Z,95802.81
2023-01-06T16:31:50.322Z,95795.81
2023-01-06T16:34:22.642Z,95812.69
2023-01-06T16:36:49.672Z,95811.22
2023-01-06T16:39:16.352Z,95814.03
2023-01-06T16:42:01.249Z,95827.50
2023-01-06T16:44:32.263Z,95823.75
2023-01-06T16:46:59.919Z,95828.38
2023-01-06T16:49:26.484Z,95819.78
2023-01-06T16:51:54.639Z,95828.63
2023-01-06T16:54:22.341Z,95829.28
2023-01-06T16:56:50.132Z,95827.28
2023-01-06T16:59:18.454Z,95833.47
2023-01-06T17:01:47.490Z,95828.13
2023-01-06T17:04:15.268Z,95824.19
2023-01-06T17:06:44.107Z,95840.63
2023-01-06T17:09:19.221Z,95838.13
2023-01-06T17:11:47.219Z,95835.25
2023-01-06T17:14:15.934Z,95837.75
2023-01-06T17:16:43.089Z,95835.72
2023-01-06T17:19:28.272Z,95832.28
2023-01-06T17:22:27.865Z,95839.03
2023-01-06T17:24:59.241Z,95842.69
2023-01-06T17:27:27.775Z,95843.31
2023-01-06T17:29:58.704Z,95847.03
2023-01-06T17:32:37.719Z,95851.16
2023-01-06T17:35:42.352Z,95852.09
2023-01-06T17:38:19.714Z,95848.19
2023-01-06T17:40:46.390Z,95853.22
2023-01-06T17:43:26.965Z,95852.09
2023-01-06T17:45:53.803Z,95859.50
2023-01-06T17:48:20.829Z,95857.50
2023-01-06T17:50:54.967Z,95865.16
2023-01-06T17:53:50.450Z,95860.13
2023-01-06T17:56:17.262Z,95866.16
2023-01-06T17:58:45.332Z,95865.38
2023-01-06T18:01:19.677Z,95866.78
2023-01-06T18:03:46.915Z,95869.28
2023-01-06T18:06:23.121Z,95868.03
2023-01-06T18:08:59.160Z,95874.16
2023-01-06T18:11:28.911Z,95876.56
2023-01-06T18:13:58.141Z,95882.44
2023-01-06T18:16:33.200Z,95884.09
2023-01-06T18:19:17.210Z,95874.25
2023-01-06T18:21:45.601Z,95877.19
2023-01-06T18:24:26.509Z,95879.72
2023-01-06T18:26:56.868Z,95877.25
2023-01-06T18:29:36.665Z,95882.78
2023-01-06T18:32:15.447Z,95891.22
2023-01-06T18:34:44.692Z,95885.34
2023-01-06T18:37:11.382Z,95887.75
2023-01-06T18:39:44.139Z,95885.59
2023-01-06T18:42:23.328Z,95884.47
2023-01-06T18:44:54.975Z,95884.63
2023-01-06T18:47:23.462Z,95877.25
2023-01-06T18:49:55.668Z,95878.84
2023-01-06T18:52:45.189Z,95885.16
2023-01-06T18:55:22.112Z,95883.44
2023-01-06T18:58:19.303Z,95887.09
2023-01-06T19:00:54.707Z,95893.13
2023-01-06T19:03:38.296Z,95884.09
2023-01-06T19:06:10.954Z,95883.19
2023-01-06T19:08:40.166Z,95880.75
2023-01-06T19:11:15.624Z,95886.38
2023-01-06T19:13:42.385Z,95879.38
2023-01-06T19:16:32.681Z,95879.56
2023-01-06T19:19:21.937Z,95872.16
2023-01-06T19:21:48.559Z,95866.38
2023-01-06T19:24:27.563Z,95873.50
2023-01-06T19:26:56.945Z,95870.28
2023-01-06T19:29:30.770Z,95862.31
2023-01-06T19:31:59.955Z,95871.34
2023-01-06T19:34:26.767Z,95867.72
2023-01-06T19:36:56.833Z,95871.69
2023-01-06T19:39:30.423Z,95867.66
2023-01-06T19:42:16.896Z,95874.75
2023-01-06T19:44:43.479Z,95873.19
2023-01-06T19:47:19.190Z,95874.59
2023-01-06T19:49:52.646Z,95871.97
2023-01-06T19:52:31.197Z,95877.25
2023-01-06T19:55:16.535Z,95869.44
2023-01-06T19:57:50.832Z,95881.06
2023-01-06T20:00:47.030Z,95874.25
2023-01-06T20:03:29.725Z,95876.31
2023-01-06T20:05:56.309Z,95871.19
2023-01-06T20:08:22.850Z,95871.19
2023-01-06T20:10:49.458Z,95874.59
2023-01-06T20:13:16.083Z,95869.00
2023-01-06T20:15:42.819Z,95867.25
2023-01-06T20:18:09.480Z,95868.50
2023-01-06T20:20:36.040Z,95863.56
2023-01-06T20:23:02.630Z,95863.41
2023-01-06T20:25:29.197Z,95864.19
2023-01-06T20:27:55.761Z,95858.34
2023-01-06T20:30:22.307Z,95857.63
2023-01-06T20:32:48.922Z,95852.28
2023-01-06T20:35:16.734Z,95848.34
2023-01-06T20:37:43.242Z,95848.91
2023-01-06T20:40:10.281Z,95843.97
2023-01-06T20:42:36.838Z,95848.19
2023-01-06T20:45:04.180Z,95849.59
2023-01-06T20:47:30.762Z,95835.56
2023-01-06T20:49:57.358Z,95842.25
2023-01-06T20:52:23.882Z,95838.56
2023-01-06T20:54:50.945Z,95841.88
2023-01-06T20:57:17.502Z,95836.53
2023-01-06T20:59:44.140Z,95841.19
2023-01-06T21:02:10.892Z,95838.56
2023-01-06T21:04:37.513Z,95833.72
2023-01-06T21:07:04.111Z,95835.34
2023-01-06T21:09:30.763Z,95837.47
2023-01-06T21:11:57.560Z,95838.97
2023-01-06T21:14:24.097Z,95828.81
2023-01-06T21:16:50.797Z,95825.72
2023-01-06T21:19:17.834Z,95832.84
2023-01-06T21:21:44.385Z,95824.44
2023-01-06T21:24:10.931Z,95829.25
2023-01-06T21:26:37.471Z,95831.94
2023-01-06T21:29:04.019Z,95823.38
2023-01-06T21:31:30.515Z,95826.97
2023-01-06T21:33:57.095Z,95823.38
2023-01-06T21:36:23.647Z,95827.13
2023-01-06T21:38:50.155Z,95823.88
2023-01-06T21:41:34.944Z,95823.81
2023-01-06T21:44:01.828Z,95822.38
2023-01-06T21:46:28.567Z,95823.00
2023-01-06T21:48:55.129Z,95820.75
2023-01-06T21:51:21.795Z,95821.09
2023-01-06T21:53:48.356Z,95822.84
2023-01-06T21:56:15.027Z,95826.50
2023-01-06T21:58:41.579Z,95824.34
2023-01-06T22:01:08.279Z,95828.28
2023-01-06T22:03:34.923Z,95831.75
2023-01-06T22:06:03.065Z,95824.34
2023-01-06T22:08:31.159Z,95824.03
2023-01-06T22:10:58.026Z,95827.63
2023-01-06T22:13:25.313Z,95828.63
2023-01-06T22:15:51.948Z,95834.34
2023-01-06T22:18:18.767Z,95826.97
2023-01-06T22:20:45.999Z,95826.44
2023-01-06T22:23:18.120Z,95826.75
2023-01-06T22:25:44.746Z,95829.72
2023-01-06T22:28:11.243Z,95835.09
2023-01-06T22:30:38.211Z,95830.50
2023-01-06T22:33:04.923Z,95829.84
2023-01-06T22:35:31.480Z,95828.34
2023-01-06T22:37:59.152Z,95824.44
2023-01-06T22:40:26.859Z,95829.28
2023-01-06T22:42:53.408Z,95821.28
2023-01-06T22:45:20.087Z,95822.34
2023-01-06T22:47:46.631Z,95816.50
2023-01-06T22:50:13.184Z,95815.97
2023-01-06T22:52:40.008Z,95807.47
2023-01-06T22:55:07.354Z,95806.28
2023-01-06T22:57:33.932Z,95809.59
2023-01-06T23:00:00.659Z,95814.66
2023-01-06T23:02:27.428Z,95807.44
2023-01-06T23:04:54.090Z,95814.47
2023-01-06T23:07:21.016Z,95811.91
2023-01-06T23:09:47.550Z,95808.63
2023-01-06T23:12:14.430Z,95803.84
2023-01-06T23:14:41.002Z,95807.91
2023-01-06T23:17:07.583Z,95798.19
2023-01-06T23:19:34.128Z,95803.34
2023-01-06T23:22:00.674Z,95794.13
2023-01-06T23:24:27.358Z,95793.50
2023-01-06T23:26:54.273Z,95790.72
2023-01-06T23:29:20.880Z,95802.22
2023-01-06T23:31:47.468Z,95803.06
2023-01-06T23:34:17.258Z,95804.38
2023-01-06T23:36:44.783Z,95799.00
2023-01-06T23:39:13.548Z,95789.09
2023-01-06T23:41:40.533Z,95791.84
2023-01-06T23:44:07.241Z,95786.09
2023-01-06T23:46:37.154Z,95784.78
2023-01-06T23:49:04.768Z,95781.34
2023-01-06T23:51:32.303Z,95784.66
2023-01-06T23:53:59.697Z,95780.97
2023-01-06T23:56:28.520Z,95783.66
2023-01-06T23:58:58.123Z,95775.53
